This is the latest recevied weather packets stored in our database for station/object WV6L-13. If no packets are shown the sender has not sent any weather packets the latest 10 day(s).
| Time | Temp. | Humidity | Pressure | Rain* | Wind** | Luminosity | Snow |
|---|---|---|---|---|---|---|---|
| 1777832394 | 28.33° C | 17% | 922.2 hPa | - | - | - | - |
| 1777829694 | 27.78° C | 16% | 922.5 hPa | - | - | - | - |
| 1777829094 | 26.67° C | 17% | 922.8 hPa | - | - | - | - |
| 1777826994 | 25° C | 15% | 923.1 hPa | - | - | - | - |
| 1777823094 | 22.22° C | 15% | 923.4 hPa | - | - | - | - |
| 1777822794 | 22.22° C | 16% | 923.6 hPa | - | - | - | - |
| 1777817994 | 14.44° C | 24% | 923.8 hPa | - | - | - | - |
| 1777817394 | 12.22° C | 27% | 923.9 hPa | - | - | - | - |
| 1777816494 | 10.56° C | 29% | 923.9 hPa | - | - | - | - |
| 1777806894 | 10.56° C | 30% | 923.1 hPa | - | - | - | - |
| 1777801194 | 11.11° C | 31% | 923.4 hPa | - | - | - | - |
| 1777800894 | 11.11° C | 33% | 923.4 hPa | - | - | - | - |
| 1777800594 | 11.67° C | 35% | 923.5 hPa | - | - | - | - |
| 1777800294 | 11.67° C | 30% | 923.4 hPa | - | - | - | - |
| 1777799993 | 11.67° C | 29% | 923.5 hPa | - | - | - | - |
| 1777799694 | 12.22° C | 28% | 923.5 hPa | - | - | - | - |
| 1777799394 | 12.22° C | 28% | 923.4 hPa | - | - | - | - |
| 1777798795 | 12.22° C | 27% | 923.6 hPa | - | - | - | - |
| 1777798494 | 12.78° C | 26% | 923.5 hPa | - | - | - | - |
| 1777797595 | 12.78° C | 24% | 923.7 hPa | - | - | - | - |
| 1777797294 | 13.33° C | 25% | 923.8 hPa | - | - | - | - |
| 1777796994 | 13.33° C | 25% | 923.7 hPa | - | - | - | - |
| 1777796694 | 12.78° C | 26% | 923.7 hPa | - | - | - | - |
| 1777796394 | 13.33° C | 26% | 923.7 hPa | - | - | - | - |
| 1777796094 | 13.33° C | 26% | 923.6 hPa | - | - | - | - |
* Rain since midnight (hover to see other rain measurements)
** Current wind speed in m/s (hover to see current wind gust speed)